CYXC

Cranbrook Airport

Cranbrook, British Columbia, Canada
METAR CYXC 162100Z 00000KT 5SM -SN FEW007 BKN025 OVC055 M00/M02 A2998 RMK SF2SC3SC3 VIS N-E 12 SLP190
Observed Flight Rules
Dec-16 @ 21:00 UTC (an hour ago) Marginal Visual Flight Rules
Visibility Clouds Conditions
5 miles
  • Few at 700' AGL
  • Broken at 2,500' AGL
  • Overcast at 5,500' AGL
  • Light Snow
Temperatures Readings
Current 0°C / 32°F
Dewpoint -2°C / 28°F
Humidity 87%
Altimeter 29.98" Hg
Pressure 1019 hPa
Elevation 939
METAR CYXC 162100Z 00000KT 5SM -SN FEW007 BKN025 OVC055 M00/M02 A2998 RMK SF2SC3SC3 VIS N-E 12 SLP190
Observed Flight Rules
Dec-16 @ 21:00 UTC
(an hour ago)
MVFR
Clouds
  • Few at 700' AGL
  • Broken at 2,500' AGL
  • Overcast at 5,500' AGL
Conditions
  • Light Snow
Temperature Dewpoint
0°C / 32°F -2°C / 28°F
Humidity Altimeter Pressure
87% 29.98" Hg 1019 hPa